Time;durP1;ratioP1;P1;durP2;ratioP2;P2;SDS_P1;SDS_P2;PMS_P1;PMS_P2;Temp;Humidity;BMP_temperature;BMP_pressure;BME280_temperature;BME280_humidity;BME280_pressure;Samples;Min_cycle;Max_cycle;Signal;HPM_P1;HPM_P2
2023/02/02 00:02:01;;;;;;;13.00;8.60;;;;;;;2.05;89.02;98791.44;104264;1253;138719;-80
2023/02/02 00:04:30;;;;;;;12.80;8.60;;;;;;;2.04;88.96;98788.88;104170;1256;107887;-80
2023/02/02 00:06:57;;;;;;;14.60;9.20;;;;;;;2.05;89.18;98785.09;103502;1256;98355;-80
2023/02/02 00:09:27;;;;;;;12.40;8.90;;;;;;;2.07;89.38;98788.81;103427;1256;137999;-81
2023/02/02 00:11:54;;;;;;;12.20;9.10;;;;;;;2.09;89.30;98790.15;104479;1256;95991;-81
2023/02/02 00:14:22;;;;;;;15.20;9.40;;;;;;;2.09;89.34;98787.73;103637;1256;142481;-80
2023/02/02 00:16:50;;;;;;;12.70;8.80;;;;;;;2.10;89.22;98783.59;103330;1256;106834;-79
2023/02/02 00:19:19;;;;;;;13.10;9.10;;;;;;;2.12;89.41;98785.09;103456;1253;97797;-80
2023/02/02 00:21:46;;;;;;;12.70;9.10;;;;;;;2.12;89.19;98785.41;103756;1256;138037;-79
2023/02/02 00:24:16;;;;;;;12.70;9.00;;;;;;;2.13;89.32;98775.98;103396;1252;97798;-80
2023/02/02 00:26:45;;;;;;;12.80;8.90;;;;;;;2.13;89.11;98777.70;103321;1253;139421;-80
2023/02/02 00:29:16;;;;;;;15.00;9.30;;;;;;;2.13;89.17;98780.95;102633;1256;1003019;-80
2023/02/02 00:31:43;;;;;;;13.30;8.70;;;;;;;2.12;89.22;98775.48;104026;1253;98318;-80
2023/02/02 00:34:11;;;;;;;14.20;9.30;;;;;;;2.13;89.33;98775.45;103488;1253;137825;-80
2023/02/02 00:36:38;;;;;;;11.80;9.20;;;;;;;2.12;89.10;98770.67;103421;1256;97846;-80
2023/02/02 00:39:05;;;;;;;15.10;9.70;;;;;;;2.12;89.18;98774.28;103268;1253;137944;-80
2023/02/02 00:41:32;;;;;;;14.50;9.80;;;;;;;2.11;89.05;98774.13;103359;1256;107181;-80
2023/02/02 00:46:43;;;;;;;15.00;9.70;;;;;;;2.10;89.24;98777.09;103357;1253;108119;-80
2023/02/02 00:49:10;;;;;;;15.20;9.30;;;;;;;2.09;89.33;98774.88;103394;1259;97828;-82
2023/02/02 00:51:38;;;;;;;15.80;9.80;;;;;;;2.08;89.19;98776.77;103297;1256;138483;-81
2023/02/02 00:54:05;;;;;;;13.70;8.90;;;;;;;2.06;89.17;98771.69;102626;1254;1003389;-81
2023/02/02 00:56:32;;;;;;;13.60;9.90;;;;;;;2.04;89.06;98770.88;103353;1253;140049;-81
2023/02/02 00:58:59;;;;;;;15.10;9.70;;;;;;;2.04;89.23;98771.06;103392;1253;107377;-80
2023/02/02 01:01:26;;;;;;;15.20;10.00;;;;;;;2.05;89.26;98774.45;103358;1253;97851;-79
2023/02/02 01:03:55;;;;;;;14.30;9.80;;;;;;;2.05;89.40;98767.41;103288;1253;138750;-80
2023/02/02 01:06:22;;;;;;;16.70;9.40;;;;;;;2.03;89.10;98771.41;103350;1256;107271;-79
2023/02/02 01:08:48;;;;;;;13.40;9.30;;;;;;;1.99;88.85;98772.70;103260;1256;138700;-79
2023/02/02 01:11:16;;;;;;;12.60;8.50;;;;;;;1.93;88.61;98765.63;103369;1253;107485;-78
2023/02/02 01:13:42;;;;;;;14.50;8.60;;;;;;;1.86;88.33;98768.53;103383;1256;97793;-78
2023/02/02 01:16:10;;;;;;;13.20;8.10;;;;;;;1.78;88.22;98769.34;103273;1253;137825;-78
2023/02/02 01:18:38;;;;;;;14.20;8.20;;;;;;;1.72;88.00;98768.28;102617;1252;1003020;-77
2023/02/02 01:21:08;;;;;;;11.30;8.60;;;;;;;1.65;88.06;98773.05;103202;1256;140259;-78
2023/02/02 01:23:36;;;;;;;12.30;7.70;;;;;;;1.59;88.11;98767.33;103415;1256;107468;-77
2023/02/02 01:26:05;;;;;;;11.30;8.10;;;;;;;1.55;88.10;98767.95;103359;1257;138707;-77
2023/02/02 01:28:32;;;;;;;11.50;8.50;;;;;;;1.50;88.10;98764.78;103435;1256;112794;-77
2023/02/02 01:31:04;;;;;;;16.80;9.00;;;;;;;1.46;88.16;98760.59;103366;1253;107111;-77
2023/02/02 01:33:32;;;;;;;12.40;8.50;;;;;;;1.43;88.21;98758.91;103260;1253;139545;-77
2023/02/02 01:35:58;;;;;;;14.40;8.80;;;;;;;1.38;88.26;98757.46;103311;1254;107704;-77
2023/02/02 01:38:26;;;;;;;14.40;9.10;;;;;;;1.37;88.48;98764.70;103228;1256;138316;-76
2023/02/02 01:40:55;;;;;;;13.40;8.60;;;;;;;1.34;88.38;98766.12;102602;1255;1003079;-77
2023/02/02 01:43:26;;;;;;;12.90;9.20;;;;;;;1.31;88.47;98766.00;103293;1254;108230;-77
2023/02/02 01:45:55;;;;;;;14.60;8.90;;;;;;;1.29;88.60;98767.59;104058;1253;139335;-77
2023/02/02 01:48:24;;;;;;;13.30;8.40;;;;;;;1.29;88.83;98769.13;103328;1253;107437;-76
2023/02/02 01:50:55;;;;;;;17.40;9.50;;;;;;;1.29;88.92;98768.28;102417;1254;1002522;-76
2023/02/02 01:53:22;;;;;;;15.20;9.00;;;;;;;1.29;89.20;98768.61;103344;1256;110634;-76
2023/02/02 01:55:52;;;;;;;13.40;8.60;;;;;;;1.31;89.48;98763.95;103305;1256;109979;-76
2023/02/02 01:58:23;;;;;;;15.00;8.90;;;;;;;1.34;89.69;98766.80;103304;1257;99476;-76
2023/02/02 02:00:50;;;;;;;11.70;8.70;;;;;;;1.37;89.83;98767.60;103268;1254;107042;-76
2023/02/02 02:03:20;;;;;;;14.50;8.60;;;;;;;1.39;90.09;98768.06;102446;1253;1003253;-76
2023/02/02 02:05:51;;;;;;;13.50;8.40;;;;;;;1.40;90.15;98766.84;103348;1253;110313;-75
2023/02/02 02:08:23;;;;;;;13.70;8.90;;;;;;;1.42;90.46;98771.09;102412;1257;1003225;-74
2023/02/02 02:10:50;;;;;;;12.20;8.60;;;;;;;1.44;90.60;98766.27;103306;1255;97791;-75
2023/02/02 02:13:20;;;;;;;15.00;9.10;;;;;;;1.46;90.87;98764.18;103292;1259;107077;-73
2023/02/02 02:18:50;;;;;;;12.80;8.70;;;;;;;1.50;91.17;98768.02;103340;1253;111739;-74
2023/02/02 02:28:10;;;;;;;11.70;8.10;;;;;;;1.53;91.34;98770.19;102472;1253;1003289;-76
2023/02/02 02:31:08;;;;;;;14.10;8.00;;;;;;;1.52;91.27;98765.25;103272;1254;97674;-76
2023/02/02 02:33:36;;;;;;;;;;;;;;;1.51;91.50;98763.89;102779;1263;138511;-75
2023/02/02 02:36:10;;;;;;;12.50;7.80;;;;;;;1.50;91.41;98771.11;102859;1263;108968;-75
2023/02/02 02:38:43;;;;;;;13.30;8.40;;;;;;;1.48;91.40;98767.73;102744;1260;140317;-76
2023/02/02 02:41:16;;;;;;;13.90;7.90;;;;;;;1.45;91.16;98767.63;102838;1263;108065;-76
2023/02/02 02:43:49;;;;;;;11.20;7.30;;;;;;;1.42;91.19;98768.16;101921;1259;1003007;-76
2023/02/02 02:46:16;;;;;;;10.70;7.30;;;;;;;1.41;91.11;98772.30;102711;1259;138357;-76
2023/02/02 02:48:46;;;;;;;11.50;7.80;;;;;;;1.40;91.22;98772.85;102083;1259;1002636;-76
2023/02/02 02:51:46;;;;;;;8.80;7.20;;;;;;;1.37;91.37;98771.18;102785;1263;138403;-76
2023/02/02 02:54:22;;;;;;;12.70;8.40;;;;;;;1.37;91.44;98773.08;102792;1259;106944;-77
2023/02/02 02:57:06;;;;;;;12.90;8.40;;;;;;;1.37;91.77;98772.38;102740;1260;138455;-77
2023/02/02 02:59:45;;;;;;;10.70;8.00;;;;;;;1.38;91.83;98771.68;103143;1259;110318;-76
2023/02/02 03:02:29;;;;;;;17.90;9.80;;;;;;;1.42;92.18;98772.29;102667;1263;138586;-78
2023/02/02 03:05:07;;;;;;;14.20;9.40;;;;;;;1.44;92.33;98772.78;102876;1262;100271;-78
2023/02/02 03:07:38;;;;;;;15.20;9.10;;;;;;;1.46;92.42;98775.14;102863;1265;107546;-78
2023/02/02 03:10:10;;;;;;;14.50;9.90;;;;;;;1.49;92.57;98773.19;102273;1262;1003337;-76
2023/02/02 03:12:45;;;;;;;15.20;9.20;;;;;;;1.51;92.67;98770.58;103406;1256;111352;-76
2023/02/02 03:15:14;;;;;;;17.80;9.90;;;;;;;1.57;92.90;98772.01;102471;1255;1003380;-77
2023/02/02 03:17:42;;;;;;;19.70;10.00;;;;;;;1.61;92.96;98773.13;103381;1256;97843;-77
2023/02/02 03:20:11;;;;;;;17.00;9.80;;;;;;;1.64;92.92;98773.25;103190;1254;138930;-77
2023/02/02 03:22:38;;;;;;;21.30;10.40;;;;;;;1.67;92.90;98775.41;103650;1256;97867;-77
2023/02/02 03:25:06;;;;;;;20.50;9.50;;;;;;;1.70;92.91;98771.58;103354;1253;111910;-77
2023/02/02 03:27:33;;;;;;;18.70;9.30;;;;;;;1.73;93.12;98771.34;103281;1254;138576;-77
2023/02/02 03:30:01;;;;;;;20.20;9.50;;;;;;;1.78;93.23;98771.75;103364;1256;97893;-76
2023/02/02 03:32:28;;;;;;;17.30;9.40;;;;;;;1.81;93.17;98766.91;103393;1256;138708;-76
2023/02/02 03:34:54;;;;;;;15.80;9.10;;;;;;;1.85;93.20;98770.25;103354;1266;97906;-77
2023/02/02 03:37:21;;;;;;;17.80;7.80;;;;;;;1.88;93.22;98765.90;103566;1255;111168;-78
2023/02/02 03:39:48;;;;;;;16.20;8.10;;;;;;;1.91;93.20;98768.91;103225;1252;138125;-78
2023/02/02 03:42:15;;;;;;;20.20;7.90;;;;;;;1.94;93.24;98766.10;103380;1260;97789;-77
2023/02/02 03:44:42;;;;;;;16.00;7.70;;;;;;;1.97;93.17;98768.96;103259;1256;137942;-77
2023/02/02 03:47:09;;;;;;;18.50;7.60;;;;;;;1.99;93.19;98771.16;102574;1257;1003199;-78
2023/02/02 03:49:36;;;;;;;17.40;7.40;;;;;;;2.01;93.06;98774.04;104303;1253;111474;-78
2023/02/02 03:52:03;;;;;;;12.80;6.90;;;;;;;2.02;93.12;98771.79;104684;1254;138097;-78
2023/02/02 03:54:31;;;;;;;20.70;7.00;;;;;;;2.04;92.99;98773.28;104373;1256;98995;-78
2023/02/02 03:56:58;;;;;;;21.70;6.60;;;;;;;2.06;92.99;98774.09;104243;1254;138636;-78
2023/02/02 03:59:25;;;;;;;19.40;7.10;;;;;;;2.08;92.91;98773.00;103650;1256;97948;-78
2023/02/02 04:01:52;;;;;;;21.20;6.50;;;;;;;2.11;92.86;98770.70;103346;1256;110761;-78
2023/02/02 04:04:19;;;;;;;20.90;6.40;;;;;;;2.13;92.72;98771.36;103281;1256;108015;-78
2023/02/02 04:06:45;;;;;;;17.70;6.40;;;;;;;2.15;92.80;98773.20;103392;1257;97704;-78
2023/02/02 04:09:12;;;;;;;21.40;7.40;;;;;;;2.17;92.66;98771.98;103209;1257;138039;-78
2023/02/02 04:11:39;;;;;;;20.50;6.20;;;;;;;2.18;92.74;98766.81;103348;1257;97816;-77
2023/02/02 04:14:06;;;;;;;15.90;6.40;;;;;;;2.20;92.56;98769.34;102569;1260;1002926;-78
2023/02/02 04:16:35;;;;;;;18.90;5.70;;;;;;;2.21;92.41;98768.98;103312;1256;106643;-78
2023/02/02 04:19:02;;;;;;;20.80;6.50;;;;;;;2.23;92.51;98769.79;103408;1257;98414;-77
2023/02/02 04:21:29;;;;;;;23.20;6.70;;;;;;;2.24;92.40;98772.66;103254;1257;137967;-78
2023/02/02 04:23:57;;;;;;;16.80;6.00;;;;;;;2.25;92.49;98766.29;103352;1257;97714;-78
2023/02/02 04:26:25;;;;;;;19.30;6.40;;;;;;;2.27;92.37;98769.33;103273;1257;138189;-78
2023/02/02 04:28:51;;;;;;;16.00;5.60;;;;;;;2.29;92.26;98769.30;103390;1257;107629;-78
2023/02/02 04:31:18;;;;;;;18.90;6.20;;;;;;;2.30;92.01;98772.19;103390;1255;97886;-78
2023/02/02 04:33:45;;;;;;;23.40;5.70;;;;;;;2.30;92.03;98771.65;103281;1254;139759;-78
2023/02/02 04:36:12;;;;;;;19.10;5.50;;;;;;;2.32;92.05;98778.14;103334;1255;98499;-78
2023/02/02 04:38:39;;;;;;;17.00;5.90;;;;;;;2.34;91.99;98775.71;103309;1260;138651;-78
2023/02/02 04:41:10;;;;;;;18.50;6.00;;;;;;;2.35;91.95;98778.44;103311;1254;107574;-78
2023/02/02 04:43:37;;;;;;;15.90;5.80;;;;;;;2.36;91.83;98777.90;103402;1256;97793;-78
2023/02/02 04:46:05;;;;;;;18.60;5.70;;;;;;;2.37;91.71;98778.57;103206;1257;138370;-79
2023/02/02 04:48:32;;;;;;;14.00;5.10;;;;;;;2.37;91.76;98771.02;103380;1254;97809;-79
2023/02/02 04:51:03;;;;;;;15.50;5.30;;;;;;;2.34;91.71;98771.77;103264;1257;138737;-79
2023/02/02 04:53:31;;;;;;;18.50;4.70;;;;;;;2.36;91.72;98771.02;103390;1252;106700;-79
2023/02/02 04:55:58;;;;;;;27.00;5.20;;;;;;;2.35;91.44;98771.92;103300;1255;138281;-78
2023/02/02 04:58:25;;;;;;;16.70;4.80;;;;;;;2.35;91.23;98776.54;103389;1257;108241;-79
2023/02/02 05:00:52;;;;;;;17.90;4.70;;;;;;;2.35;91.28;98774.65;103422;1258;97796;-79
2023/02/02 05:03:19;;;;;;;20.00;5.10;;;;;;;2.35;91.38;98775.00;103233;1254;137961;-79
2023/02/02 05:05:46;;;;;;;19.80;4.60;;;;;;;2.34;91.28;98772.44;103335;1254;106935;-80
2023/02/02 05:08:13;;;;;;;21.10;4.70;;;;;;;2.34;91.20;98772.95;103268;1256;138499;-79
2023/02/02 05:10:42;;;;;;;16.10;4.00;;;;;;;2.34;91.31;98774.52;103321;1254;108894;-80
2023/02/02 05:13:09;;;;;;;14.70;4.00;;;;;;;2.33;91.41;98775.36;103372;1254;97790;-80
2023/02/02 05:15:36;;;;;;;16.30;4.10;;;;;;;2.34;91.37;98776.05;103276;1257;139698;-80
2023/02/02 05:18:03;;;;;;;16.80;3.80;;;;;;;2.34;91.16;98776.40;103332;1257;106491;-80
2023/02/02 05:20:30;;;;;;;14.00;3.60;;;;;;;2.34;91.17;98778.62;103310;1254;138591;-79
2023/02/02 05:22:57;;;;;;;10.90;3.60;;;;;;;2.34;91.24;98776.56;103368;1257;107040;-79
2023/02/02 05:25:24;;;;;;;20.30;5.10;;;;;;;2.35;91.03;98776.38;102603;1254;1002499;-79
2023/02/02 05:27:51;;;;;;;18.10;4.50;;;;;;;2.36;91.01;98778.77;103248;1254;139791;-80
2023/02/02 05:30:19;;;;;;;19.20;4.10;;;;;;;2.36;91.03;98775.66;103332;1257;108479;-80
2023/02/02 05:32:46;;;;;;;12.40;3.70;;;;;;;2.37;90.94;98776.50;103237;1257;139545;-80
2023/02/02 05:35:13;;;;;;;18.30;4.00;;;;;;;2.38;90.82;98775.27;103405;1254;107217;-81
2023/02/02 05:37:42;;;;;;;15.10;3.90;;;;;;;2.38;90.81;98772.52;103432;1257;97798;-80
2023/02/02 05:40:11;;;;;;;14.30;3.50;;;;;;;2.39;90.91;98773.70;103281;1256;137940;-80
2023/02/02 05:42:38;;;;;;;19.20;4.60;;;;;;;2.40;90.76;98767.66;103388;1255;107609;-80
2023/02/02 05:45:05;;;;;;;21.20;4.80;;;;;;;2.42;90.54;98770.55;103242;1263;138277;-80
2023/02/02 05:47:34;;;;;;;19.30;4.00;;;;;;;2.42;90.71;98778.43;103401;1257;107991;-80
2023/02/02 05:50:02;;;;;;;14.70;4.40;;;;;;;2.44;90.74;98778.39;103282;1257;138338;-80
2023/02/02 05:52:37;;;;;;;15.90;4.00;;;;;;;2.44;90.50;98777.89;103404;1257;109310;-80
2023/02/02 05:55:04;;;;;;;16.80;4.50;;;;;;;2.45;90.38;98777.52;102655;1254;1003439;-75
2023/02/02 05:57:31;;;;;;;18.40;4.60;;;;;;;2.46;90.40;98774.57;103273;1254;138396;-73
2023/02/02 05:59:58;;;;;;;14.90;4.10;;;;;;;2.48;90.41;98772.63;103363;1254;106995;-76
2023/02/02 06:02:25;;;;;;;14.10;3.90;;;;;;;2.49;90.33;98770.23;103273;1256;138321;-78
2023/02/02 06:04:52;;;;;;;17.30;4.00;;;;;;;2.49;90.27;98771.94;103366;1253;110834;-82
2023/02/02 06:07:19;;;;;;;14.40;4.00;;;;;;;2.49;90.19;98775.00;103334;1257;107400;-84
2023/02/02 06:09:46;;;;;;;19.60;4.80;;;;;;;2.49;90.15;98771.57;103978;1254;138173;-77
2023/02/02 06:12:13;;;;;;;17.90;4.60;;;;;;;2.51;90.19;98773.59;103372;1254;108007;-74
2023/02/02 06:14:39;;;;;;;16.90;4.90;;;;;;;2.53;90.08;98776.66;103212;1254;138174;-79
2023/02/02 06:17:06;;;;;;;18.20;4.40;;;;;;;2.53;90.02;98771.84;103345;1256;110986;-77
2023/02/02 06:19:33;;;;;;;15.10;4.00;;;;;;;2.56;90.02;98773.66;103306;1257;107214;-77
2023/02/02 06:22:00;;;;;;;15.90;4.10;;;;;;;2.58;89.91;98769.67;103198;1254;138124;-75
2023/02/02 06:24:29;;;;;;;15.80;3.80;;;;;;;2.59;89.88;98772.56;103295;1256;106669;-76
2023/02/02 06:26:56;;;;;;;13.80;4.30;;;;;;;2.60;89.78;98771.16;103158;1254;138298;-76
2023/02/02 06:29:23;;;;;;;9.60;3.90;;;;;;;2.62;89.59;98774.02;103312;1254;111291;-76
2023/02/02 06:31:50;;;;;;;13.70;3.90;;;;;;;2.62;89.41;98772.14;103250;1257;108799;-77
2023/02/02 06:34:17;;;;;;;15.70;4.00;;;;;;;2.62;89.35;98771.63;103304;1254;98331;-73
2023/02/02 06:36:44;;;;;;;11.90;3.50;;;;;;;2.63;89.47;98773.98;103355;1257;107162;-77
2023/02/02 06:39:11;;;;;;;16.40;4.30;;;;;;;2.65;89.33;98771.70;102554;1254;1002696;-77
2023/02/02 06:41:39;;;;;;;11.40;3.70;;;;;;;2.65;89.14;98766.55;103258;1258;110766;-77
2023/02/02 06:44:06;;;;;;;11.00;4.00;;;;;;;2.66;89.11;98772.03;103194;1254;138347;-77
2023/02/02 06:46:33;;;;;;;15.50;4.10;;;;;;;2.67;89.17;98773.02;103322;1256;99447;-78
2023/02/02 06:48:59;;;;;;;11.20;4.00;;;;;;;2.69;89.09;98774.20;103317;1253;109750;-79
2023/02/02 06:51:27;;;;;;;11.50;3.90;;;;;;;2.69;89.13;98770.08;103175;1254;138214;-72
2023/02/02 06:53:53;;;;;;;9.30;3.30;;;;;;;2.68;89.10;98767.85;103276;1254;110794;-73
2023/02/02 06:56:23;;;;;;;8.60;3.40;;;;;;;2.67;88.98;98763.09;103119;1254;139568;-73
2023/02/02 06:58:50;;;;;;;12.30;3.70;;;;;;;2.66;89.07;98758.82;102449;1254;1003528;-75
2023/02/02 07:01:17;;;;;;;8.60;4.00;;;;;;;2.65;89.34;98753.70;103306;1253;108443;-71
2023/02/02 07:03:47;;;;;;;10.70;3.80;;;;;;;2.64;89.36;98754.94;104011;1254;138469;-73
2023/02/02 07:06:19;;;;;;;12.40;4.20;;;;;;;2.64;89.48;98758.86;103287;1257;111134;-70
2023/02/02 07:08:47;;;;;;;9.80;3.90;;;;;;;2.62;89.42;98756.69;103227;1257;138362;-74
2023/02/02 07:11:28;;;;;;;13.10;3.90;;;;;;;2.62;89.45;98758.07;104101;1257;96466;-74
2023/02/02 07:13:56;;;;;;;10.40;4.70;;;;;;;2.62;89.75;98754.11;102595;1253;1003330;-75
2023/02/02 07:16:23;;;;;;;11.90;4.50;;;;;;;2.59;89.32;98753.86;103276;1254;97772;-76
2023/02/02 07:18:50;;;;;;;11.90;5.20;;;;;;;2.57;89.65;98753.22;103213;1257;111370;-76
2023/02/02 07:21:20;;;;;;;11.70;5.40;;;;;;;2.58;89.62;98752.67;103094;1257;139394;-75
2023/02/02 07:23:47;;;;;;;14.30;6.50;;;;;;;2.58;89.64;98757.31;103250;1257;98347;-74
2023/02/02 07:26:14;;;;;;;14.70;7.20;;;;;;;2.55;89.49;98753.97;103165;1254;139865;-73
2023/02/02 07:28:42;;;;;;;15.50;7.00;;;;;;;2.51;89.58;98750.79;103659;1252;97857;-71
2023/02/02 07:31:18;;;;;;;14.20;7.80;;;;;;;2.51;89.71;98753.34;103190;1255;110984;-72
2023/02/02 07:33:46;;;;;;;14.40;6.80;;;;;;;2.49;89.76;98754.25;103117;1257;139769;-72
2023/02/02 07:36:16;;;;;;;16.00;7.60;;;;;;;2.47;89.87;98746.92;103317;1253;98433;-75
2023/02/02 07:38:43;;;;;;;17.60;7.80;;;;;;;2.46;89.92;98753.65;103662;1254;139386;-73
2023/02/02 07:41:10;;;;;;;15.00;7.90;;;;;;;2.46;90.20;98754.84;103311;1253;97904;-73
2023/02/02 07:43:37;;;;;;;13.10;7.30;;;;;;;2.46;90.15;98761.69;103330;1257;110698;-73
2023/02/02 07:46:07;;;;;;;12.90;6.90;;;;;;;2.43;90.13;98762.11;103203;1253;137697;-75
2023/02/02 07:48:34;;;;;;;14.60;8.00;;;;;;;2.42;90.36;98764.88;104810;1252;96085;-74
2023/02/02 07:51:03;;;;;;;13.30;6.50;;;;;;;2.41;90.35;98766.27;103309;1254;138158;-73
2023/02/02 07:53:30;;;;;;;14.10;6.90;;;;;;;2.41;90.25;98764.73;103380;1256;98406;-73
2023/02/02 07:56:07;;;;;;;13.90;6.70;;;;;;;2.41;90.49;98765.42;103362;1254;112232;-72
2023/02/02 07:58:34;;;;;;;11.50;5.90;;;;;;;2.41;90.21;98766.61;102499;1256;1002673;-73
2023/02/02 08:01:04;;;;;;;9.40;5.40;;;;;;;2.40;90.22;98760.63;103645;1253;96160;-73
2023/02/02 08:03:31;;;;;;;10.40;5.80;;;;;;;2.39;90.34;98769.24;103200;1256;139544;-73
2023/02/02 08:05:59;;;;;;;9.80;6.00;;;;;;;2.38;90.48;98767.73;103319;1256;97781;-73
2023/02/02 08:08:26;;;;;;;8.90;5.50;;;;;;;2.40;90.55;98767.33;103301;1252;140336;-73
2023/02/02 08:10:54;;;;;;;10.50;5.40;;;;;;;2.42;90.49;98771.05;103260;1254;107554;-74
2023/02/02 08:13:21;;;;;;;10.20;4.90;;;;;;;2.43;90.45;98774.46;103351;1257;98075;-73
2023/02/02 08:15:48;;;;;;;8.10;4.90;;;;;;;2.41;90.00;98771.08;103160;1253;138135;-73
2023/02/02 08:18:15;;;;;;;8.60;5.90;;;;;;;2.35;89.84;98771.39;103333;1253;97787;-71
2023/02/02 08:20:42;;;;;;;10.80;5.30;;;;;;;2.34;89.91;98778.80;102490;1256;1003608;-72
2023/02/02 08:23:14;;;;;;;9.60;5.50;;;;;;;2.32;89.76;98776.41;102474;1253;1002955;-72
2023/02/02 08:25:41;;;;;;;7.60;4.80;;;;;;;2.29;89.67;98777.68;102547;1253;1002824;-73
2023/02/02 08:28:08;;;;;;;10.60;4.90;;;;;;;2.28;89.73;98780.13;103139;1253;138447;-72
2023/02/02 08:30:35;;;;;;;6.90;4.60;;;;;;;2.23;89.69;98778.34;103293;1252;97906;-72
2023/02/02 08:33:02;;;;;;;7.10;4.60;;;;;;;2.21;89.80;98776.86;103180;1254;138264;-73
2023/02/02 08:35:29;;;;;;;6.10;3.80;;;;;;;2.18;89.76;98779.33;103272;1254;108086;-72
2023/02/02 08:37:56;;;;;;;6.10;3.90;;;;;;;2.12;89.87;98786.63;103300;1254;97877;-71
2023/02/02 08:40:24;;;;;;;8.40;4.50;;;;;;;2.08;89.92;98786.03;103221;1253;137570;-74
2023/02/02 08:42:54;;;;;;;7.80;4.80;;;;;;;2.07;89.94;98786.74;103336;1253;97922;-75
2023/02/02 08:45:21;;;;;;;9.90;4.80;;;;;;;2.07;90.03;98789.50;103651;1253;138080;-74
2023/02/02 08:48:08;;;;;;;8.00;4.30;;;;;;;2.04;89.93;98786.48;103263;1253;107356;-75
2023/02/02 08:50:38;;;;;;;6.80;4.40;;;;;;;2.04;90.15;98791.45;103278;1254;139350;-74
2023/02/02 08:53:05;;;;;;;8.90;5.00;;;;;;;2.04;90.25;98796.07;103562;1253;1002486;-74
2023/02/02 08:55:32;;;;;;;8.20;5.20;;;;;;;2.05;90.41;98793.66;103334;1252;97783;-74
2023/02/02 08:58:01;;;;;;;10.90;5.80;;;;;;;2.05;90.28;98797.59;103610;1253;139306;-75
2023/02/02 09:00:28;;;;;;;8.90;5.40;;;;;;;2.03;90.14;98794.71;103206;1253;106761;-74
2023/02/02 09:02:55;;;;;;;10.10;5.50;;;;;;;2.05;90.37;98790.75;103274;1254;138266;-71
2023/02/02 09:05:22;;;;;;;10.40;6.20;;;;;;;2.10;90.47;98796.12;102527;1253;1015784;-74
2023/02/02 09:07:50;;;;;;;9.80;6.20;;;;;;;2.14;90.71;98798.09;103830;1254;97832;-77
2023/02/02 09:10:18;;;;;;;9.80;6.70;;;;;;;2.20;90.64;98796.61;103237;1256;137686;-77
2023/02/02 09:12:45;;;;;;;12.80;7.60;;;;;;;2.26;90.44;98795.77;103408;1254;106649;-77
2023/02/02 09:15:12;;;;;;;10.30;7.00;;;;;;;2.32;90.57;98797.86;103406;1253;140069;-76
2023/02/02 09:17:39;;;;;;;15.10;7.30;;;;;;;2.36;90.30;98797.96;103895;1252;107915;-77
2023/02/02 09:20:08;;;;;;;11.90;7.10;;;;;;;2.39;90.33;98803.37;103626;1252;139165;-76
2023/02/02 09:22:35;;;;;;;10.50;6.30;;;;;;;2.43;90.30;98801.58;103488;1254;110399;-76
2023/02/02 09:25:02;;;;;;;8.10;5.20;;;;;;;2.49;90.50;98803.66;102509;1253;1003450;-75
2023/02/02 09:27:29;;;;;;;8.70;5.80;;;;;;;2.54;90.29;98805.12;103197;1254;139841;-74
2023/02/02 09:29:55;;;;;;;11.40;6.00;;;;;;;2.57;90.12;98811.56;103997;1253;108639;-74
2023/02/02 09:32:22;;;;;;;9.90;5.70;;;;;;;2.59;89.90;98811.86;103475;1252;138330;-75
2023/02/02 09:34:49;;;;;;;10.30;6.20;;;;;;;2.61;89.93;98816.59;103485;1253;111051;-75
2023/02/02 09:37:16;;;;;;;9.80;6.00;;;;;;;2.66;90.11;98820.42;103939;1253;109116;-76
2023/02/02 09:39:43;;;;;;;11.70;5.60;;;;;;;2.72;90.18;98818.92;103253;1253;138646;-75
2023/02/02 09:42:40;;;;;;;10.00;5.60;;;;;;;2.76;90.04;98823.64;103331;1253;106801;-74
2023/02/02 09:45:13;;;;;;;9.50;5.40;;;;;;;2.79;89.91;98822.72;103237;1256;138144;-75
2023/02/02 09:47:54;;;;;;;7.50;5.00;;;;;;;2.79;89.93;98830.27;104736;1254;111188;-76
2023/02/02 09:50:32;;;;;;;7.50;5.20;;;;;;;2.80;89.69;98831.61;104289;1252;139641;-75
2023/02/02 09:53:04;;;;;;;12.00;5.50;;;;;;;2.81;89.82;98837.76;103710;1253;97788;-74
2023/02/02 09:55:37;;;;;;;10.60;5.80;;;;;;;2.83;89.65;98843.71;103359;1252;107951;-75
2023/02/02 09:58:13;;;;;;;10.90;5.40;;;;;;;2.84;89.68;98844.71;104362;1254;139930;-76
2023/02/02 10:00:46;;;;;;;9.70;5.40;;;;;;;2.86;89.79;98853.44;103550;1254;111255;-74
2023/02/02 10:03:19;;;;;;;10.10;6.20;;;;;;;2.90;90.02;98856.12;103163;1256;138125;-74
2023/02/02 10:05:55;;;;;;;11.90;6.60;;;;;;;2.92;89.87;98859.30;103347;1256;97900;-74
2023/02/02 10:08:33;;;;;;;9.40;6.50;;;;;;;2.95;89.74;98866.97;103482;1253;139634;-74
2023/02/02 10:11:05;;;;;;;9.10;5.90;;;;;;;2.97;89.89;98871.36;103419;1254;97816;-74
2023/02/02 10:13:37;;;;;;;9.50;5.90;;;;;;;3.03;89.92;98869.67;103372;1253;112532;-73
2023/02/02 10:16:15;;;;;;;9.60;5.40;;;;;;;3.09;89.88;98874.04;103560;1253;140068;-73
2023/02/02 10:18:48;;;;;;;7.40;4.90;;;;;;;3.13;90.12;98875.13;103373;1257;97803;-73
2023/02/02 10:21:24;;;;;;;5.40;4.00;;;;;;;3.15;89.84;98878.86;103347;1253;138294;-76
2023/02/02 10:23:53;;;;;;;5.70;4.10;;;;;;;3.14;89.67;98884.38;104410;1253;96041;-77
2023/02/02 10:26:22;;;;;;;7.60;4.10;;;;;;;3.14;89.48;98881.79;103264;1253;113150;-77
2023/02/02 10:29:09;;;;;;;4.80;3.80;;;;;;;3.16;89.53;98886.55;103147;1253;138031;-76
2023/02/02 10:31:49;;;;;;;7.50;4.40;;;;;;;3.16;89.27;98891.36;103646;1253;97893;-78
2023/02/02 10:34:26;;;;;;;7.30;4.00;;;;;;;3.16;89.36;98894.11;103227;1253;138313;-77
2023/02/02 10:37:12;;;;;;;6.20;4.10;;;;;;;3.16;89.30;98896.86;103265;1252;97720;-77
2023/02/02 10:39:53;;;;;;;5.00;3.50;;;;;;;3.19;89.32;98900.58;103295;1254;137795;-78
2023/02/02 10:42:33;;;;;;;5.50;3.90;;;;;;;3.20;89.22;98901.24;103325;1253;106443;-77
2023/02/02 10:45:03;;;;;;;5.20;3.70;;;;;;;3.18;89.23;98910.03;103154;1253;139340;-75
2023/02/02 10:47:33;;;;;;;6.40;3.60;;;;;;;3.17;88.77;98918.14;103238;1253;106719;-71
2023/02/02 10:50:19;;;;;;;5.30;3.70;;;;;;;3.20;89.26;98921.33;103224;1257;97954;-72
2023/02/02 10:52:49;;;;;;;5.00;3.50;;;;;;;3.24;89.25;98926.91;103164;1257;137786;-77
2023/02/02 10:55:25;;;;;;;4.20;3.40;;;;;;;3.26;89.39;98926.33;103282;1253;108931;-77
2023/02/02 10:58:00;;;;;;;4.70;3.20;;;;;;;3.30;89.05;98935.18;103463;1252;138023;-75
2023/02/02 11:00:34;;;;;;;5.30;3.50;;;;;;;3.29;88.95;98941.02;103488;1253;108026;-75
2023/02/02 11:03:03;;;;;;;3.70;3.30;;;;;;;3.29;88.83;98944.65;103208;1253;138396;-74
2023/02/02 11:08:19;;;;;;;5.90;3.20;;;;;;;3.30;88.74;98952.36;103229;1257;108552;-74
2023/02/02 11:10:50;;;;;;;5.70;4.10;;;;;;;3.26;88.53;98952.98;103156;1253;138080;-74
2023/02/02 11:13:24;;;;;;;7.50;4.20;;;;;;;3.21;88.61;98957.89;103311;1253;108023;-75
2023/02/02 11:16:12;;;;;;;5.90;4.00;;;;;;;3.15;88.28;98960.09;103132;1253;138476;-75
2023/02/02 11:18:39;;;;;;;7.60;4.50;;;;;;;3.10;88.10;98966.58;103304;1253;111335;-75
2023/02/02 11:21:20;;;;;;;7.00;4.70;;;;;;;3.06;88.20;98966.99;103187;1253;140123;-75
2023/02/02 11:23:55;;;;;;;6.70;4.70;;;;;;;3.03;88.10;98972.02;102465;1253;1003143;-73
2023/02/02 11:26:23;;;;;;;7.50;5.40;;;;;;;3.04;88.58;98975.61;101754;1255;1003073;-74
2023/02/02 11:28:52;;;;;;;6.30;4.80;;;;;;;3.10;89.00;98977.58;103117;1258;138498;-74
2023/02/02 11:31:35;;;;;;;7.70;5.50;;;;;;;3.13;89.05;98976.10;103303;1253;111306;-74
2023/02/02 11:34:22;;;;;;;7.90;6.10;;;;;;;3.16;89.09;98977.23;103154;1253;138006;-74
2023/02/02 11:37:13;;;;;;;10.80;6.30;;;;;;;3.19;89.16;98983.70;103228;1253;97666;-74
2023/02/02 11:39:40;;;;;;;10.50;6.40;;;;;;;3.27;89.44;98988.00;103134;1257;138022;-75
2023/02/02 11:42:14;;;;;;;10.50;6.90;;;;;;;3.35;89.30;98987.63;103240;1253;98225;-76
2023/02/02 11:44:43;;;;;;;10.60;7.00;;;;;;;3.46;89.43;98993.41;103403;1253;111393;-72
2023/02/02 11:47:21;;;;;;;9.00;7.10;;;;;;;3.54;89.41;98995.61;103149;1253;138248;-76